Saikhan-Ovoo, Mongolia
Current Conditions -  °F | °C
As of 9:30 PM on Friday 28 Nov 2014 (Local Time) from ZMUB Reporting Station
Smoke Smoke  
Wind Chill: -12°   Ceiling: Unl
Heat Index: -2°   Visibility: 3mi
Dew Point: -9°   Wind: 4mph
Humidity: 71%   Direction: NA
Pressure: 29.74"   Gusts: NA
Location:  45.45°N, 103.9°E
Report Text: ZMUB 281330Z VRB02MPS 5000NW FU SCT100 M19/M23 Q1007 NOSIG RMK QFE648.8 67 NT
Loading
Personal Weather Stations






























Interactive Weather Map New forecast layout! Learn more

10-Day Weather Forecast

Advertisements
Track Severe Weather on mobile